EYSA/SQQ METAR and TAF weather

Enter ICAO airport designator
Station Type Date Time Source
EYSA METAR 2020/01/21 21:20 UTC NOAA

EYSA 212120Z 25011KT 9999 OVC006 06/05 Q1017 R14L/29//95 R14R/29//95 YLO BECMG OVC007 GRN


Station Type Date Time Source
EYSA Decoded METAR 2020/01/21 21:20 UTC NOAA

Siauliai Intl./Mil., Lithuania (EYSA) 55-53-38N 023-23-42E
Jan 21, 2020 - 04:20 PM EST / 2020.01.21 2120 UTC
Wind: from the WSW (250 degrees) at 13 MPH (11 KT):0
Visibility: greater than 7 mile(s):0
Sky conditions: overcast
Temperature: 42 F (6 C)
Dew Point: 41 F (5 C)
Relative Humidity: 93%
Pressure (altimeter): 30.03 in. Hg (1017 hPa)
ob: EYSA 212120Z 25011KT 9999 OVC006 06/05 Q1017 R14L/29//95 R14R/29//95 YLO BECMG OVC007 GRN
cycle: 21

Station Type Date Time Source
EYSA TAF 2019/12/04 21:03 UTC NOAA

TAF TAF EYSA 042001Z 0421/0509 26012KT 7000 OVC006
TEMPO 0421/0502 3000 BR OVC004

Example: see airport list